Time;durP1;ratioP1;P1;durP2;ratioP2;P2;SDS_P1;SDS_P2;PMS_P1;PMS_P2;Temp;Humidity;BMP_temperature;BMP_pressure;BME280_temperature;BME280_humidity;BME280_pressure;Samples;Min_cycle;Max_cycle;Signal;HPM_P1;HPM_P2
2022/07/20 03:02:19;;;;;;;0.80;0.80;;;25.20;54.10;;;;;;5292904;23;20283;-72
2022/07/20 03:04:46;;;;;;;0.80;0.80;;;25.30;54.20;;;;;;4977352;28;20438;-71
2022/07/20 03:07:13;;;;;;;0.80;0.77;;;25.20;54.40;;;;;;4977303;28;20477;-71
2022/07/20 03:09:39;;;;;;;1.00;0.90;;;25.20;54.20;;;;;;4977221;28;20449;-71
2022/07/20 03:12:07;;;;;;;1.00;0.90;;;25.10;54.20;;;;;;4977128;28;20896;-71
2022/07/20 03:14:33;;;;;;;0.77;0.73;;;25.10;54.40;;;;;;4978221;28;20941;-71
2022/07/20 03:17:00;;;;;;;0.70;0.70;;;25.10;54.50;;;;;;4977038;28;20477;-72
2022/07/20 03:19:28;;;;;;;0.73;0.73;;;25.10;54.50;;;;;;4977043;28;20450;-72
2022/07/20 03:21:55;;;;;;;0.90;0.90;;;25.00;54.80;;;;;;4976944;28;20501;-72
2022/07/20 03:24:21;;;;;;;0.90;0.70;;;25.00;54.80;;;;;;4976969;28;20446;-72
2022/07/20 03:26:48;;;;;;;0.80;0.77;;;25.00;54.70;;;;;;4976928;28;20861;-72
2022/07/20 03:29:15;;;;;;;0.70;0.70;;;24.90;54.70;;;;;;4976925;28;20457;-72
2022/07/20 03:31:41;;;;;;;0.80;0.80;;;24.90;55.00;;;;;;4976790;28;20881;-72
2022/07/20 03:34:08;;;;;;;0.70;0.70;;;24.90;54.90;;;;;;4976809;28;20450;-72
2022/07/20 03:36:36;;;;;;;0.80;0.80;;;24.90;55.00;;;;;;4976686;28;20512;-72
2022/07/20 03:39:03;;;;;;;0.80;0.80;;;24.90;55.10;;;;;;4976697;28;20453;-72
2022/07/20 03:41:29;;;;;;;0.87;0.70;;;24.80;55.00;;;;;;4976602;28;20466;-72
2022/07/20 03:43:56;;;;;;;1.10;0.90;;;24.80;55.30;;;;;;4976302;28;20454;-72
2022/07/20 03:46:23;;;;;;;0.83;0.83;;;24.70;55.40;;;;;;4976542;28;20442;-72
2022/07/20 03:48:49;;;;;;;0.80;0.80;;;24.70;55.40;;;;;;4976532;28;20446;-72
2022/07/20 03:51:16;;;;;;;0.70;0.70;;;24.70;55.60;;;;;;4975888;28;20473;-72
2022/07/20 03:53:44;;;;;;;1.07;1.03;;;24.70;55.30;;;;;;4976443;28;20454;-72
2022/07/20 03:56:10;;;;;;;1.00;0.90;;;24.70;55.70;;;;;;4976277;28;20484;-72
2022/07/20 03:58:37;;;;;;;0.70;0.60;;;24.80;55.50;;;;;;4976331;28;20500;-72
2022/07/20 04:01:04;;;;;;;0.80;0.80;;;24.70;55.70;;;;;;4976046;28;20482;-72
2022/07/20 04:03:31;;;;;;;0.90;0.90;;;24.70;55.80;;;;;;4976242;28;20549;-72
2022/07/20 04:05:57;;;;;;;0.80;0.80;;;24.70;55.80;;;;;;4976209;28;20445;-72
2022/07/20 04:08:24;;;;;;;0.70;0.63;;;24.70;56.10;;;;;;4976177;28;20442;-72
2022/07/20 04:10:52;;;;;;;0.70;0.70;;;24.70;55.90;;;;;;4976017;28;20529;-72
2022/07/20 04:13:18;;;;;;;0.70;0.70;;;24.70;55.50;;;;;;4976086;28;20505;-72
2022/07/20 04:15:45;;;;;;;0.77;0.70;;;24.70;55.80;;;;;;4975945;28;20516;-72
2022/07/20 04:18:12;;;;;;;0.80;0.80;;;24.70;55.60;;;;;;4975637;28;20607;-72
2022/07/20 04:20:38;;;;;;;0.80;0.80;;;24.80;55.50;;;;;;4975527;28;21014;-72
2022/07/20 04:23:05;;;;;;;0.70;0.70;;;24.90;55.00;;;;;;4975549;28;21020;-72
2022/07/20 04:25:32;;;;;;;0.90;0.90;;;24.90;55.20;;;;;;4975498;28;20628;-72
2022/07/20 04:28:00;;;;;;;1.15;0.82;;;25.00;55.10;;;;;;4975462;28;20501;-72
2022/07/20 04:30:26;;;;;;;0.90;0.80;;;25.10;54.90;;;;;;4975689;28;20266;-72
2022/07/20 04:32:53;;;;;;;0.70;0.70;;;25.20;54.80;;;;;;4975690;28;20509;-72
2022/07/20 04:35:20;;;;;;;0.77;0.77;;;25.20;55.50;;;;;;4975646;28;20450;-72
2022/07/20 04:37:46;;;;;;;0.80;0.70;;;25.30;55.30;;;;;;4975499;28;20556;-72
2022/07/20 04:40:14;;;;;;;0.80;0.80;;;25.40;55.40;;;;;;4975513;28;20846;-72
2022/07/20 04:42:41;;;;;;;0.90;0.90;;;25.40;55.20;;;;;;4975481;28;20234;-72
2022/07/20 04:45:10;;;;;;;0.80;0.80;;;25.50;54.60;;;;;;4975466;28;20512;-72
2022/07/20 04:47:37;;;;;;;0.90;0.73;;;25.50;54.60;;;;;;4975042;28;20937;-72
2022/07/20 04:50:04;;;;;;;0.77;0.77;;;25.50;54.70;;;;;;4975397;28;20449;-72
2022/07/20 04:52:31;;;;;;;0.90;0.90;;;25.50;54.80;;;;;;4975293;28;20230;-72
2022/07/20 04:54:57;;;;;;;0.80;0.80;;;25.60;54.60;;;;;;4975286;28;20481;-72
2022/07/20 04:57:24;;;;;;;0.97;0.80;;;25.60;54.40;;;;;;4975196;28;20517;-72
2022/07/20 04:59:51;;;;;;;1.60;0.87;;;25.60;54.10;;;;;;4975227;28;20804;-72
2022/07/20 05:02:19;;;;;;;0.80;0.80;;;25.60;54.30;;;;;;4973865;28;21000;-72
2022/07/20 05:04:46;;;;;;;1.00;0.90;;;25.70;54.20;;;;;;4975165;28;20206;-72
2022/07/20 05:07:13;;;;;;;0.80;0.80;;;25.80;54.00;;;;;;4975152;28;20477;-72
2022/07/20 05:09:40;;;;;;;0.90;0.90;;;25.80;53.90;;;;;;4975062;28;20863;-72
2022/07/20 05:12:07;;;;;;;0.80;0.80;;;25.90;53.90;;;;;;4974972;28;20281;-72
2022/07/20 05:14:33;;;;;;;0.70;0.70;;;25.90;54.00;;;;;;4975025;28;20866;-72
2022/07/20 05:17:00;;;;;;;1.17;0.80;;;26.00;54.20;;;;;;4974868;28;20218;-72
2022/07/20 05:19:28;;;;;;;0.70;0.70;;;25.80;54.50;;;;;;4974930;28;20450;-72
2022/07/20 05:21:56;;;;;;;0.80;0.80;;;25.80;54.80;;;;;;4974838;28;20529;-72
2022/07/20 05:24:22;;;;;;;1.00;0.90;;;25.60;54.50;;;;;;4974863;28;20217;-72
2022/07/20 05:26:49;;;;;;;0.83;0.83;;;25.30;55.70;;;;;;4974814;28;20438;-72
2022/07/20 05:29:16;;;;;;;0.90;0.90;;;25.10;55.70;;;;;;4974759;28;20453;-72
2022/07/20 05:31:42;;;;;;;0.90;0.90;;;25.20;55.90;;;;;;4974651;28;20524;-72
2022/07/20 05:34:09;;;;;;;0.80;0.80;;;25.10;56.20;;;;;;4974695;28;20500;-72
2022/07/20 05:36:37;;;;;;;0.80;0.80;;;25.20;56.10;;;;;;4974606;28;20222;-72
2022/07/20 05:39:04;;;;;;;1.10;0.90;;;25.50;55.60;;;;;;4975051;28;20446;-72
2022/07/20 05:41:30;;;;;;;0.90;0.70;;;25.50;55.40;;;;;;4974550;28;20470;-72
2022/07/20 05:43:57;;;;;;;0.90;0.83;;;25.80;55.10;;;;;;4974603;28;20214;-72
2022/07/20 05:46:24;;;;;;;1.00;0.90;;;26.10;54.80;;;;;;4974223;28;20830;-72
2022/07/20 05:48:51;;;;;;;0.80;0.80;;;26.20;54.80;;;;;;4974533;28;20450;-72
2022/07/20 05:51:17;;;;;;;0.80;0.80;;;26.20;55.00;;;;;;4974456;28;20528;-72
2022/07/20 05:53:45;;;;;;;0.90;0.90;;;25.90;54.50;;;;;;4974497;28;20446;-72
2022/07/20 05:56:12;;;;;;;0.80;0.70;;;25.60;55.10;;;;;;4974453;28;20458;-72
2022/07/20 05:58:39;;;;;;;0.80;0.80;;;25.50;55.10;;;;;;4974344;28;20482;-72
2022/07/20 06:01:06;;;;;;;0.70;0.70;;;25.50;55.00;;;;;;4974188;28;20296;-72
2022/07/20 06:03:32;;;;;;;2.17;0.83;;;25.50;54.90;;;;;;4974388;28;20453;-72
2022/07/20 06:05:59;;;;;;;0.90;0.90;;;25.60;54.60;;;;;;4974404;28;20450;-72
2022/07/20 06:08:25;;;;;;;0.80;0.80;;;25.90;53.80;;;;;;4974325;28;20493;-72
2022/07/20 06:10:53;;;;;;;1.27;0.90;;;25.90;54.40;;;;;;4974254;28;20525;-72
2022/07/20 06:13:20;;;;;;;1.37;0.90;;;26.10;54.80;;;;;;4974916;28;20496;-72
2022/07/20 06:15:47;;;;;;;0.87;0.87;;;26.30;54.40;;;;;;4978191;28;20500;-72
2022/07/20 06:18:13;;;;;;;1.10;0.80;;;26.40;53.90;;;;;;4978039;28;20556;-72
2022/07/20 06:20:40;;;;;;;1.10;0.80;;;26.70;53.10;;;;;;4978031;28;20214;-72
2022/07/20 06:23:07;;;;;;;0.87;0.87;;;27.00;52.60;;;;;;4978122;28;20265;-72
2022/07/20 06:25:34;;;;;;;0.80;0.70;;;27.10;52.60;;;;;;4978065;28;20524;-72
2022/07/20 06:28:02;;;;;;;0.80;0.80;;;27.10;52.30;;;;;;4977799;28;20253;-72
2022/07/20 06:30:29;;;;;;;0.70;0.70;;;27.30;53.10;;;;;;4977959;28;20457;-72
2022/07/20 06:32:56;;;;;;;0.90;0.90;;;27.40;51.80;;;;;;4977901;28;20479;-72
2022/07/20 06:35:23;;;;;;;0.93;0.93;;;27.50;51.10;;;;;;4977866;28;20453;-73
2022/07/20 06:37:50;;;;;;;1.03;0.93;;;27.80;51.70;;;;;;4977712;28;20489;-73
2022/07/20 06:40:17;;;;;;;0.80;0.70;;;28.10;51.90;;;;;;4977469;28;20938;-73
2022/07/20 06:42:43;;;;;;;0.70;0.70;;;28.40;49.90;;;;;;4977402;28;20898;-73
2022/07/20 06:45:11;;;;;;;0.90;0.90;;;28.60;50.00;;;;;;4977684;28;20573;-73
2022/07/20 06:47:38;;;;;;;0.70;0.70;;;28.80;48.90;;;;;;4977693;28;20262;-73
2022/07/20 06:50:05;;;;;;;1.10;1.00;;;29.00;48.70;;;;;;4977598;28;20450;-73
2022/07/20 06:52:32;;;;;;;0.97;0.90;;;28.90;48.90;;;;;;4977180;28;21047;-73
2022/07/20 06:54:59;;;;;;;0.80;0.80;;;28.90;50.00;;;;;;4977650;28;20470;-73
2022/07/20 06:57:26;;;;;;;1.30;0.77;;;29.10;49.00;;;;;;4977465;28;20539;-73
2022/07/20 06:59:52;;;;;;;1.00;0.90;;;28.90;48.90;;;;;;4977438;28;20508;-73
2022/07/20 07:02:20;;;;;;;0.80;0.80;;;29.20;48.00;;;;;;4977113;28;20482;-73
2022/07/20 07:04:48;;;;;;;1.20;1.10;;;29.50;47.10;;;;;;4977321;28;20570;-73
2022/07/20 07:07:14;;;;;;;0.90;0.90;;;29.80;47.80;;;;;;4977049;28;20457;-73
2022/07/20 07:09:41;;;;;;;1.43;0.80;;;29.90;47.10;;;;;;4976954;28;20861;-73
2022/07/20 07:12:08;;;;;;;1.00;0.90;;;29.70;47.90;;;;;;4976854;28;20469;-73
2022/07/20 07:14:35;;;;;;;1.63;1.00;;;29.90;48.10;;;;;;4977168;28;20517;-73
2022/07/20 07:17:02;;;;;;;0.80;0.70;;;30.10;46.80;;;;;;4977055;28;20505;-73
2022/07/20 07:19:30;;;;;;;0.90;0.90;;;30.10;46.90;;;;;;4977067;28;20450;-73
2022/07/20 07:21:56;;;;;;;0.90;0.90;;;30.20;46.20;;;;;;4976953;28;20529;-73
2022/07/20 07:24:23;;;;;;;0.80;0.80;;;30.40;47.10;;;;;;4976557;28;20450;-73
2022/07/20 07:26:50;;;;;;;0.80;0.80;;;30.40;46.10;;;;;;4976182;28;20497;-73
2022/07/20 07:29:19;;;;;;;0.90;0.90;;;30.50;46.00;;;;;;4976881;28;20501;-73
2022/07/20 07:31:46;;;;;;;0.90;0.80;;;30.20;46.10;;;;;;4976780;28;20470;-72
2022/07/20 07:34:12;;;;;;;0.83;0.83;;;30.00;46.50;;;;;;4976449;28;20849;-73
2022/07/20 07:36:40;;;;;;;0.90;0.80;;;30.30;46.30;;;;;;4976769;28;20454;-73
2022/07/20 07:39:07;;;;;;;0.90;0.90;;;30.40;46.00;;;;;;4976670;28;20482;-72
2022/07/20 07:41:34;;;;;;;0.90;0.90;;;30.30;47.70;;;;;;4976651;28;20517;-72
2022/07/20 07:44:01;;;;;;;0.80;0.80;;;30.30;47.80;;;;;;4976655;28;20457;-72
2022/07/20 07:46:27;;;;;;;0.80;0.80;;;30.20;48.40;;;;;;4976584;28;20450;-73
2022/07/20 07:48:54;;;;;;;0.90;0.90;;;30.00;48.40;;;;;;4976555;28;20442;-73
2022/07/20 07:51:21;;;;;;;0.80;0.80;;;30.00;48.30;;;;;;4976437;28;20552;-73
2022/07/20 07:53:49;;;;;;;1.30;0.70;;;30.30;47.50;;;;;;4976514;28;20454;-73
2022/07/20 07:56:16;;;;;;;0.80;0.80;;;30.50;47.20;;;;;;4976419;28;20450;-73
2022/07/20 07:58:42;;;;;;;1.20;0.80;;;30.70;47.40;;;;;;4976300;28;20478;-73
2022/07/20 08:01:09;;;;;;;1.50;0.87;;;30.60;47.20;;;;;;4975829;28;20927;-73
2022/07/20 08:03:36;;;;;;;1.17;1.07;;;30.60;47.40;;;;;;4976268;28;20505;-73
2022/07/20 08:06:04;;;;;;;1.53;0.90;;;30.90;46.60;;;;;;4976203;28;20450;-73
2022/07/20 08:08:31;;;;;;;0.80;0.80;;;31.00;46.90;;;;;;4976233;28;20501;-73
2022/07/20 08:11:00;;;;;;;0.90;0.90;;;31.40;46.80;;;;;;4976055;28;20544;-73
2022/07/20 08:13:27;;;;;;;0.80;0.70;;;31.20;45.70;;;;;;4976153;28;20202;-73
2022/07/20 08:15:54;;;;;;;2.85;0.80;;;31.20;46.20;;;;;;4976218;28;20457;-73
2022/07/20 08:18:20;;;;;;;0.73;0.73;;;31.40;46.00;;;;;;4975647;28;20768;-73
2022/07/20 08:20:47;;;;;;;0.80;0.80;;;31.70;46.20;;;;;;4975956;28;20478;-72
2022/07/20 08:23:14;;;;;;;0.83;0.83;;;31.40;45.30;;;;;;4975902;28;20497;-72
2022/07/20 08:25:41;;;;;;;0.90;0.90;;;31.20;46.00;;;;;;4975868;28;20481;-73
2022/07/20 08:28:14;;;;;;;0.70;0.70;;;31.40;46.10;;;;;;4975842;28;20453;-73
2022/07/20 08:30:43;;;;;;;1.00;0.90;;;31.30;45.00;;;;;;4975742;28;20469;-73
2022/07/20 08:33:10;;;;;;;0.97;0.87;;;31.40;45.90;;;;;;4975446;28;20830;-74
2022/07/20 08:35:38;;;;;;;0.70;0.70;;;31.50;44.90;;;;;;4975737;28;20454;-73
2022/07/20 08:38:05;;;;;;;0.90;0.90;;;31.60;45.20;;;;;;4975575;28;20533;-73
2022/07/20 08:40:31;;;;;;;0.80;0.80;;;31.40;44.20;;;;;;4975577;28;20454;-73
2022/07/20 08:42:59;;;;;;;2.60;0.97;;;31.30;45.00;;;;;;4975632;28;20453;-73
2022/07/20 08:45:28;;;;;;;0.90;0.90;;;31.40;46.80;;;;;;4975269;28;20793;-73
2022/07/20 08:47:58;;;;;;;0.90;0.80;;;31.60;44.40;;;;;;4975310;28;20449;-73
2022/07/20 08:50:26;;;;;;;1.10;0.90;;;31.90;45.20;;;;;;4975425;28;20454;-73
2022/07/20 08:52:53;;;;;;;0.90;0.90;;;32.20;45.10;;;;;;4975433;28;20454;-73
2022/07/20 08:55:21;;;;;;;0.80;0.80;;;32.60;44.60;;;;;;4975541;28;20508;-73
2022/07/20 08:57:48;;;;;;;0.80;0.80;;;32.90;43.90;;;;;;4975319;28;20250;-73
2022/07/20 09:00:15;;;;;;;1.08;0.88;;;33.00;43.20;;;;;;4975255;28;20503;-73
2022/07/20 09:02:54;;;;;;;0.83;0.83;;;33.00;44.70;;;;;;4974874;28;20289;-73
2022/07/20 09:05:21;;;;;;;0.90;0.80;;;32.90;42.70;;;;;;4975245;28;20437;-73
2022/07/20 09:07:50;;;;;;;1.20;0.90;;;33.10;43.40;;;;;;4975214;28;20214;-73
2022/07/20 09:10:18;;;;;;;1.00;1.00;;;33.20;42.50;;;;;;4975242;28;20454;-73
2022/07/20 09:12:58;;;;;;;0.80;0.80;;;33.20;43.60;;;;;;4976246;28;20528;-73
2022/07/20 09:15:37;;;;;;;0.90;0.70;;;33.20;43.70;;;;;;4974727;28;20972;-73
2022/07/20 09:18:16;;;;;;;0.70;0.70;;;33.30;42.90;;;;;;4974725;28;20891;-74
2022/07/20 09:20:46;;;;;;;1.00;0.90;;;33.50;42.80;;;;;;4974962;28;20520;-73
2022/07/20 09:23:14;;;;;;;1.00;0.90;;;33.70;42.90;;;;;;4974881;28;20450;-73
2022/07/20 09:25:52;;;;;;;0.80;0.80;;;33.60;41.90;;;;;;4974851;28;20446;-73
2022/07/20 09:28:20;;;;;;;0.80;0.80;;;33.70;42.00;;;;;;4974545;28;20453;-74
2022/07/20 09:30:54;;;;;;;0.87;0.87;;;34.00;42.60;;;;;;4974410;28;20977;-73
2022/07/20 09:33:26;;;;;;;1.37;0.80;;;34.20;41.60;;;;;;4974740;28;20453;-73
2022/07/20 09:35:54;;;;;;;0.73;0.73;;;34.30;43.00;;;;;;4974721;28;20500;-73
2022/07/20 09:38:24;;;;;;;0.80;0.80;;;34.50;41.00;;;;;;4974648;28;20481;-73
2022/07/20 09:40:53;;;;;;;0.80;0.80;;;34.80;39.80;;;;;;4974668;28;20466;-73
2022/07/20 09:43:27;;;;;;;1.43;1.00;;;35.00;39.90;;;;;;4974630;28;20446;-73
2022/07/20 09:45:54;;;;;;;0.80;0.80;;;34.90;41.40;;;;;;4974620;28;20450;-73
2022/07/20 09:48:23;;;;;;;0.70;0.70;;;34.90;40.60;;;;;;4974023;28;20533;-73
2022/07/20 09:50:51;;;;;;;0.90;0.80;;;34.90;40.90;;;;;;4974232;28;20992;-73
2022/07/20 09:53:18;;;;;;;1.00;0.90;;;35.10;41.20;;;;;;4974561;28;20450;-73
2022/07/20 09:55:45;;;;;;;0.80;0.80;;;35.50;40.00;;;;;;4974202;28;20868;-73
2022/07/20 09:58:11;;;;;;;0.70;0.70;;;35.50;39.50;;;;;;4974112;28;21011;-73
2022/07/20 10:00:39;;;;;;;0.80;0.70;;;35.40;39.60;;;;;;4974333;28;20480;-73
2022/07/20 10:03:06;;;;;;;0.80;0.80;;;35.40;40.50;;;;;;4974494;28;20533;-74
2022/07/20 10:05:35;;;;;;;0.80;0.80;;;35.70;38.40;;;;;;4974416;28;20476;-74
2022/07/20 10:08:06;;;;;;;0.70;0.70;;;35.70;38.70;;;;;;4974420;28;20500;-73
2022/07/20 10:10:33;;;;;;;1.00;1.00;;;35.70;39.50;;;;;;4974376;28;20453;-73
2022/07/20 10:13:01;;;;;;;0.73;0.70;;;35.60;39.20;;;;;;4974354;28;20449;-73
2022/07/20 10:15:36;;;;;;;1.00;0.70;;;35.50;39.20;;;;;;4974246;28;20453;-73
2022/07/20 10:18:07;;;;;;;0.80;0.80;;;35.50;38.30;;;;;;4974314;28;20469;-73
2022/07/20 10:20:35;;;;;;;0.80;0.80;;;35.60;38.60;;;;;;4974252;28;20830;-73
2022/07/20 10:23:26;;;;;;;1.47;0.90;;;35.70;37.00;;;;;;4974329;28;20449;-73
2022/07/20 10:25:53;;;;;;;0.70;0.70;;;35.70;38.30;;;;;;4974235;28;20480;-73
2022/07/20 10:28:35;;;;;;;0.80;0.73;;;36.10;36.60;;;;;;4974248;28;20491;-73
2022/07/20 10:31:06;;;;;;;0.80;0.80;;;36.20;37.30;;;;;;4974223;28;20221;-73
2022/07/20 10:33:34;;;;;;;0.70;0.70;;;36.40;35.60;;;;;;4974289;28;20497;-73
2022/07/20 10:38:59;;;;;;;1.57;0.80;;;36.30;36.20;;;;;;4974118;28;20464;-73
2022/07/20 10:41:36;;;;;;;0.70;0.60;;;36.40;37.10;;;;;;4974063;28;20523;-73
2022/07/20 10:44:27;;;;;;;0.90;0.80;;;36.40;35.80;;;;;;4974154;28;20476;-73
2022/07/20 10:46:54;;;;;;;0.93;0.83;;;36.50;36.70;;;;;;4974078;28;20515;-74
2022/07/20 10:49:59;;;;;;;1.03;0.93;;;36.90;36.30;;;;;;4974028;28;20458;-73
2022/07/20 10:52:30;;;;;;;1.00;0.80;;;37.10;35.80;;;;;;4973941;28;20531;-73
2022/07/20 10:54:58;;;;;;;1.47;1.00;;;37.20;35.30;;;;;;4974013;28;20528;-73
2022/07/20 10:57:26;;;;;;;2.03;1.00;;;37.30;36.30;;;;;;4974023;28;20540;-74
2022/07/20 11:00:11;;;;;;;0.80;0.70;;;37.30;35.50;;;;;;4973931;28;20568;-74
2022/07/20 11:02:38;;;;;;;0.77;0.70;;;37.20;35.50;;;;;;4977066;28;20497;-73
2022/07/20 11:05:06;;;;;;;0.90;0.80;;;37.00;35.80;;;;;;4977368;28;20468;-72
2022/07/20 11:07:34;;;;;;;0.70;0.70;;;36.80;35.80;;;;;;4977326;28;20445;-73
2022/07/20 11:10:20;;;;;;;0.77;0.70;;;36.80;36.70;;;;;;4977311;28;20441;-73
2022/07/20 11:12:55;;;;;;;0.80;0.80;;;36.60;36.50;;;;;;4976980;28;20848;-73
2022/07/20 11:15:22;;;;;;;1.33;0.80;;;36.40;36.80;;;;;;4977212;28;20512;-73
2022/07/20 11:17:49;;;;;;;1.67;0.90;;;36.50;38.60;;;;;;4977159;28;20449;-73
2022/07/20 11:20:17;;;;;;;1.33;0.90;;;36.70;36.70;;;;;;4977038;28;20476;-73
2022/07/20 11:22:44;;;;;;;1.20;0.90;;;36.70;36.40;;;;;;4976960;28;20480;-73
2022/07/20 11:25:12;;;;;;;0.80;0.80;;;36.70;37.20;;;;;;4976995;28;20453;-73
2022/07/20 11:27:39;;;;;;;0.80;0.75;;;36.90;36.50;;;;;;4976959;28;20500;-74
2022/07/20 11:30:07;;;;;;;0.90;0.70;;;37.30;36.40;;;;;;4976929;28;20257;-74
2022/07/20 11:32:34;;;;;;;0.80;0.80;;;37.40;36.40;;;;;;4976875;28;20475;-74
2022/07/20 11:35:00;;;;;;;0.80;0.70;;;37.50;36.50;;;;;;4976555;28;20956;-73
2022/07/20 11:37:27;;;;;;;0.90;0.80;;;37.50;35.50;;;;;;4976773;28;20453;-73
2022/07/20 11:39:54;;;;;;;0.70;0.70;;;37.50;36.90;;;;;;4976675;28;20851;-73
2022/07/20 11:42:22;;;;;;;1.70;0.80;;;37.60;37.00;;;;;;4976650;28;20532;-74
2022/07/20 11:45:02;;;;;;;1.00;0.90;;;37.60;37.00;;;;;;4976357;28;20632;-74
2022/07/20 11:47:28;;;;;;;1.20;0.97;;;37.50;36.10;;;;;;4976603;28;20504;-74
2022/07/20 11:50:05;;;;;;;0.70;0.70;;;37.60;36.60;;;;;;4976254;28;20925;-74
2022/07/20 11:52:39;;;;;;;0.80;0.70;;;37.70;35.90;;;;;;4976497;28;20512;-72
2022/07/20 11:55:07;;;;;;;1.43;0.83;;;37.70;37.20;;;;;;4976451;28;20517;-71
2022/07/20 11:57:36;;;;;;;1.43;0.90;;;37.90;37.10;;;;;;4976410;28;20499;-71
2022/07/20 12:00:03;;;;;;;0.70;0.70;;;37.90;36.00;;;;;;4976079;28;20504;-71
2022/07/20 12:02:30;;;;;;;0.70;0.67;;;38.00;35.00;;;;;;4975966;28;20520;-71
2022/07/20 12:04:59;;;;;;;0.80;0.80;;;38.10;35.70;;;;;;4975929;28;20953;-71
2022/07/20 12:10:18;;;;;;;1.00;0.80;;;37.90;36.60;;;;;;4965751;28;20311;-70
2022/07/20 12:12:47;;;;;;;0.80;0.70;;;37.90;36.40;;;;;;4975651;28;20465;-71
2022/07/20 12:15:14;;;;;;;1.60;0.70;;;38.20;37.00;;;;;;4976088;28;20457;-71
2022/07/20 12:17:48;;;;;;;0.70;0.70;;;38.50;35.40;;;;;;4975777;28;20508;-71
2022/07/20 12:20:15;;;;;;;0.80;0.80;;;38.40;36.00;;;;;;4975974;28;20470;-71
2022/07/20 12:22:51;;;;;;;0.97;0.90;;;38.20;35.90;;;;;;4975867;28;20516;-71
2022/07/20 12:25:18;;;;;;;0.80;0.70;;;38.20;36.10;;;;;;4975676;28;20901;-71
2022/07/20 12:27:47;;;;;;;0.80;0.80;;;38.50;36.50;;;;;;4975887;28;20449;-71
2022/07/20 12:30:27;;;;;;;1.50;0.90;;;38.40;35.10;;;;;;4975800;28;20512;-71
2022/07/20 12:33:10;;;;;;;0.70;0.70;;;38.20;35.50;;;;;;4975808;28;20198;-71
2022/07/20 12:35:38;;;;;;;0.70;0.70;;;38.00;35.90;;;;;;4975766;28;20437;-71
2022/07/20 12:38:05;;;;;;;1.83;0.80;;;38.20;36.10;;;;;;4975657;28;20501;-72
2022/07/20 12:40:41;;;;;;;1.00;0.80;;;38.30;36.90;;;;;;4975573;28;20492;-71
2022/07/20 12:43:30;;;;;;;1.33;0.90;;;38.50;36.50;;;;;;4975629;28;20433;-72
2022/07/20 12:46:01;;;;;;;0.80;0.70;;;38.50;35.90;;;;;;4975648;28;20433;-71
2022/07/20 12:48:28;;;;;;;2.40;1.03;;;38.20;36.80;;;;;;4975180;28;20665;-71
2022/07/20 12:50:55;;;;;;;0.80;0.80;;;38.00;37.30;;;;;;4975344;28;20512;-71
2022/07/20 12:53:22;;;;;;;0.90;0.90;;;37.70;38.00;;;;;;4975352;28;20499;-71
2022/07/20 12:55:49;;;;;;;0.80;0.80;;;37.50;38.70;;;;;;4974992;28;20980;-71
2022/07/20 12:58:16;;;;;;;1.10;1.00;;;37.30;39.30;;;;;;4975223;28;20206;-72
2022/07/20 13:00:44;;;;;;;1.10;1.00;;;37.10;39.10;;;;;;4974576;28;20765;-72
2022/07/20 13:03:11;;;;;;;1.08;0.95;;;36.70;39.70;;;;;;4975183;28;20500;-71
2022/07/20 13:05:38;;;;;;;1.10;1.10;;;36.60;40.50;;;;;;4974859;28;20632;-71
2022/07/20 13:08:05;;;;;;;1.17;1.07;;;36.50;40.70;;;;;;4975153;28;20500;-71
2022/07/20 13:10:32;;;;;;;2.70;1.10;;;36.30;41.50;;;;;;4974997;28;20441;-70
2022/07/20 13:12:59;;;;;;;0.90;0.90;;;36.20;41.90;;;;;;4974977;28;20496;-71
2022/07/20 13:15:26;;;;;;;0.95;0.95;;;36.00;42.10;;;;;;4974943;28;20445;-71
2022/07/20 13:17:54;;;;;;;1.47;1.20;;;35.90;42.20;;;;;;4974971;28;20648;-71
2022/07/20 13:20:22;;;;;;;2.60;1.10;;;35.40;43.90;;;;;;4974551;28;21004;-71
2022/07/20 13:22:49;;;;;;;4.93;1.30;;;35.10;44.90;;;;;;4974335;28;20485;-71
2022/07/20 13:25:15;;;;;;;1.47;1.10;;;34.90;45.70;;;;;;4974720;28;20453;-71
2022/07/20 13:27:43;;;;;;;1.40;1.30;;;34.70;46.40;;;;;;4974851;28;20446;-71
2022/07/20 13:30:11;;;;;;;1.47;1.37;;;34.40;47.40;;;;;;4974762;28;20442;-71
2022/07/20 13:32:37;;;;;;;1.37;1.27;;;34.20;48.70;;;;;;4974411;28;20919;-72
2022/07/20 13:35:06;;;;;;;1.77;1.40;;;33.90;51.20;;;;;;4974710;28;20449;-70
2022/07/20 13:37:33;;;;;;;1.30;1.20;;;33.60;52.20;;;;;;4974679;28;20508;-71
2022/07/20 13:40:00;;;;;;;3.33;1.13;;;33.50;53.30;;;;;;4974615;28;20566;-71
2022/07/20 13:42:27;;;;;;;1.37;1.27;;;33.50;55.00;;;;;;4974572;28;20544;-71
2022/07/20 13:44:53;;;;;;;1.00;1.00;;;33.40;54.10;;;;;;4974568;28;20524;-71
2022/07/20 13:47:20;;;;;;;1.67;1.50;;;33.50;54.70;;;;;;4974241;28;21005;-71
2022/07/20 13:49:47;;;;;;;1.60;1.50;;;33.70;54.20;;;;;;4974247;28;21012;-71
2022/07/20 13:52:17;;;;;;;1.37;1.27;;;34.00;54.00;;;;;;4974191;28;20997;-71
2022/07/20 13:54:44;;;;;;;1.60;1.50;;;34.00;53.90;;;;;;4974259;28;21006;-71
2022/07/20 13:57:10;;;;;;;1.50;1.40;;;34.10;54.30;;;;;;4974454;28;20455;-71
2022/07/20 13:59:37;;;;;;;1.40;1.30;;;34.10;53.20;;;;;;4974350;28;20477;-71
2022/07/20 14:02:04;;;;;;;1.67;1.57;;;34.00;53.50;;;;;;4974020;28;20513;-71
2022/07/20 14:04:30;;;;;;;1.60;1.47;;;34.10;53.60;;;;;;4974447;28;20509;-71
2022/07/20 14:06:57;;;;;;;1.55;1.45;;;34.10;52.90;;;;;;4974327;28;20449;-71
2022/07/20 14:09:25;;;;;;;1.40;1.30;;;34.00;52.20;;;;;;4974380;28;20202;-71
2022/07/20 14:11:51;;;;;;;1.50;1.40;;;33.80;52.50;;;;;;4974310;28;20465;-71
2022/07/20 14:14:18;;;;;;;1.60;1.50;;;33.80;52.90;;;;;;4974045;28;20625;-71
2022/07/20 14:16:45;;;;;;;1.30;1.30;;;33.90;52.70;;;;;;4974324;28;20868;-71
2022/07/20 14:19:12;;;;;;;1.40;1.30;;;33.90;52.90;;;;;;4974248;28;20641;-71
2022/07/20 14:21:41;;;;;;;1.00;1.00;;;33.90;52.30;;;;;;4974233;28;20474;-71
2022/07/20 14:24:08;;;;;;;1.17;1.17;;;33.80;52.40;;;;;;4973995;28;20449;-71
2022/07/20 14:26:37;;;;;;;1.53;1.43;;;33.70;51.90;;;;;;4974259;28;20551;-71
2022/07/20 14:29:03;;;;;;;1.17;1.07;;;33.70;52.30;;;;;;4974139;28;20504;-71
2022/07/20 14:31:31;;;;;;;1.37;1.20;;;33.80;52.60;;;;;;4974061;28;20883;-71
2022/07/20 14:33:58;;;;;;;1.50;1.40;;;33.90;53.00;;;;;;4973857;28;20937;-71
2022/07/20 14:36:25;;;;;;;1.23;1.23;;;34.20;51.80;;;;;;4977570;28;20823;-71
2022/07/20 14:38:52;;;;;;;1.20;1.10;;;34.40;50.70;;;;;;4977795;28;20265;-71
2022/07/20 14:41:19;;;;;;;1.30;1.20;;;34.60;50.10;;;;;;4977647;28;20493;-71
2022/07/20 14:43:47;;;;;;;1.30;1.20;;;34.70;50.10;;;;;;4977765;28;20505;-71
2022/07/20 14:46:14;;;;;;;1.97;1.40;;;34.80;49.30;;;;;;4977720;28;20449;-71
2022/07/20 14:48:41;;;;;;;1.20;1.20;;;34.60;49.60;;;;;;4977694;28;20497;-71
2022/07/20 14:51:08;;;;;;;1.40;1.30;;;34.50;50.20;;;;;;4977287;28;20466;-71
2022/07/20 14:53:35;;;;;;;1.50;1.40;;;34.50;50.40;;;;;;4977564;28;20453;-71
2022/07/20 14:56:02;;;;;;;1.40;1.30;;;34.50;50.50;;;;;;4977551;28;20800;-72
2022/07/20 14:58:29;;;;;;;1.80;1.70;;;34.50;50.40;;;;;;4977487;28;20449;-72
2022/07/20 15:00:57;;;;;;;1.20;1.20;;;34.60;50.40;;;;;;4977150;28;20494;-71
2022/07/20 15:03:23;;;;;;;1.27;1.20;;;34.60;50.50;;;;;;4977430;28;20425;-71
2022/07/20 15:05:50;;;;;;;1.60;1.50;;;34.60;50.60;;;;;;4977364;28;20449;-71
2022/07/20 15:08:17;;;;;;;1.40;1.30;;;34.70;50.80;;;;;;4977313;28;20497;-71
2022/07/20 15:10:43;;;;;;;1.30;1.30;;;35.00;50.80;;;;;;4977266;28;20497;-71
2022/07/20 15:13:10;;;;;;;1.43;1.33;;;35.10;50.00;;;;;;5000670;23;20198;-74
2022/07/20 15:15:37;;;;;;;1.40;1.30;;;35.30;49.70;;;;;;4976944;28;20833;-73
2022/07/20 15:18:05;;;;;;;1.57;1.43;;;35.40;49.50;;;;;;4976767;28;20827;-73
2022/07/20 15:20:31;;;;;;;1.40;1.30;;;35.60;48.90;;;;;;4977102;28;20473;-73
2022/07/20 15:22:58;;;;;;;1.30;1.30;;;35.70;48.10;;;;;;4976700;28;20460;-75
2022/07/20 15:25:25;;;;;;;1.50;1.40;;;35.90;48.00;;;;;;4977071;28;20496;-74
2022/07/20 15:27:51;;;;;;;2.65;1.50;;;36.00;47.80;;;;;;4977015;28;20476;-74
2022/07/20 15:30:18;;;;;;;1.30;1.30;;;36.20;47.40;;;;;;4976989;28;20237;-74
2022/07/20 15:32:45;;;;;;;1.40;1.30;;;36.30;47.60;;;;;;4976948;28;20458;-75
2022/07/20 15:35:13;;;;;;;1.20;1.20;;;36.40;47.40;;;;;;4976950;28;20230;-74
2022/07/20 15:37:39;;;;;;;1.37;1.27;;;36.20;48.20;;;;;;4976888;28;20500;-74
2022/07/20 15:40:07;;;;;;;1.63;1.53;;;36.30;48.10;;;;;;4976763;28;20484;-75
2022/07/20 15:42:34;;;;;;;1.20;1.20;;;36.40;48.10;;;;;;4976763;28;20453;-75
2022/07/20 15:45:01;;;;;;;1.73;1.20;;;36.50;47.60;;;;;;4976668;28;20477;-74
2022/07/20 15:47:27;;;;;;;1.37;1.27;;;36.40;47.10;;;;;;4975583;28;20980;-75
2022/07/20 15:49:54;;;;;;;1.40;1.30;;;36.30;47.30;;;;;;4976291;28;20957;-74
2022/07/20 15:52:22;;;;;;;1.20;1.20;;;36.00;48.80;;;;;;4976287;28;20874;-74
2022/07/20 15:54:49;;;;;;;1.30;1.20;;;35.90;48.70;;;;;;4976141;28;20895;-75
2022/07/20 15:57:23;;;;;;;1.23;1.13;;;35.90;48.80;;;;;;4976184;28;20945;-74
2022/07/20 15:59:51;;;;;;;1.90;1.20;;;35.70;48.60;;;;;;4976161;28;20542;-73